Cedar Springs, MI (49319)

1:13 PM EST on February 01, 2015 (GMT -0500)
APRSWXNET Cedar Springs MI US | Change Station
CLOSE
Current Station
Personal Weather Station
Location: Cedar Springs, MI
Elevation: 885 ft
Nearby Weather Stations
Active Advisory: Winter Storm Warning

Elev 885 ft 43.19 °N, 85.51 °W | Updated 31 minutes ago

Snow
Snow
14 °F
Feels Like 2 °F
N
9
Wind Variable Wind from West
Gusts 18.0 mph

Today
High -- | Low -- °F
--% Chance of Precip.
Yesterday
High -- | Low -- °F
Precip. -- in
7:57 AM 5:54 PM
Waxing Gibbous, 95% visible
Pressure 30.02 in
Visibility 0.5 miles
Clouds
Windchill 2 °F
Dew Point 12 °F
Humidity 90%
Rainfall 0.00 in
Snow Depth Not available.
UV Not available.
Pollen .10 out of 12
Air Quality Not available.
Flu Activity Not available.
METAR KGRR 011753Z 06019G27KT 1/2SM R26L/2800V3000FT SN BLSN FZFG VV010 M08/M11 A2999 RMK AO2 PK WND 06028/1656 SLP166 4/005 P0003 60018 T10831106 11061 21089 58033

More Conditions Fewer Conditions

Pressure 30.02 in
Visibility 0.5 miles
Clouds
Windchill 2 °F
Dew Point 12 °F
Humidity 90%
Rainfall 0.00 in
Snow Depth Not available.
UV Not available.
Pollen .10 out of 12
Air Quality Not available.
Flu Activity Not available.
METAR KGRR 011753Z 06019G27KT 1/2SM R26L/2800V3000FT SN BLSN FZFG VV010 M08/M11 A2999 RMK AO2 PK WND 06028/1656 SLP166 4/005 P0003 60018 T10831106 11061 21089 58033

More Conditions Fewer Conditions

10-Day Weather Forecast

Almanac

Astronomy

Feb. 01, 2015 Rise Set
Actual Time
Civil Twilight
Nautical Twilight
Astronomical Twilight
Moon
Length of Visible Light
Length of Day
Tomorrow will be .
, % of the Moon is Illuminated

Today's Extremes

State Highs State Lows

Community

WunderPhotos

Upload Photos

1,792,420 photos uploaded!

WunderBlogs® & News

Nearby

Air Quality

  Air Quality AQ Index Pollutant
Not available.

Snow Depth

Station Depth Elevation

Earthquake Activity

City Distance Mag. Time & Date
Minimum magnitude displayed is 2.5.

Coastal Water Temperatures

Place Temperature

Nearby Weather Stations